Terminal Aerodrome Forecast
Issued by NWS Albany, NY

Home | Current Version | Previous Version | Text Only | Print | Product List | Glossary On
Versions: 1 2 3 4 5 6 7 8 9 10 11 12 13 14 15 16 17 18 19 20 21
000
FTUS41 KALY 110500
TAFGFL
TAF
KGFL 110524Z 1106/1206 00000KT P6SM FEW250
     FM110800 00000KT P6SM SKC
      TEMPO 1108/1111 2SM BR FEW002
     FM111500 12003KT P6SM SKC
     FM120100 00000KT P6SM SKC=

USA.gov is the U.S. government's official web portal to all federal, state and local government web resources and services.